sensor_id;sensor_type;location;lat;lon;timestamp;P1;durP1;ratioP1;P2;durP2;ratioP2
66721;SDS011;53633;49.932;10.884;2022-09-27T00:00:25;3.70;;;1.00;;
66721;SDS011;53633;49.932;10.884;2022-09-27T00:02:52;3.63;;;0.70;;
66721;SDS011;53633;49.932;10.884;2022-09-27T00:05:19;3.63;;;0.98;;
66721;SDS011;53633;49.932;10.884;2022-09-27T00:07:47;3.33;;;0.80;;
66721;SDS011;53633;49.932;10.884;2022-09-27T00:10:14;3.47;;;0.88;;
66721;SDS011;53633;49.932;10.884;2022-09-27T00:12:40;3.90;;;0.98;;
66721;SDS011;53633;49.932;10.884;2022-09-27T00:15:08;3.70;;;0.63;;
66721;SDS011;53633;49.932;10.884;2022-09-27T00:17:35;4.95;;;0.98;;
66721;SDS011;53633;49.932;10.884;2022-09-27T00:20:03;4.20;;;0.73;;
66721;SDS011;53633;49.932;10.884;2022-09-27T00:22:31;2.75;;;0.75;;
66721;SDS011;53633;49.932;10.884;2022-09-27T00:24:59;3.60;;;0.90;;
66721;SDS011;53633;49.932;10.884;2022-09-27T00:27:26;3.20;;;0.80;;
66721;SDS011;53633;49.932;10.884;2022-09-27T00:29:53;3.70;;;0.80;;
66721;SDS011;53633;49.932;10.884;2022-09-27T00:32:20;4.22;;;1.00;;
66721;SDS011;53633;49.932;10.884;2022-09-27T00:34:46;3.90;;;0.80;;
66721;SDS011;53633;49.932;10.884;2022-09-27T00:37:13;5.15;;;0.95;;
66721;SDS011;53633;49.932;10.884;2022-09-27T00:39:39;3.70;;;0.90;;
66721;SDS011;53633;49.932;10.884;2022-09-27T00:42:09;4.25;;;1.05;;
66721;SDS011;53633;49.932;10.884;2022-09-27T00:47:32;7.03;;;1.10;;
66721;SDS011;53633;49.932;10.884;2022-09-27T00:50:04;4.13;;;0.93;;
66721;SDS011;53633;49.932;10.884;2022-09-27T00:52:39;5.07;;;1.33;;
66721;SDS011;53633;49.932;10.884;2022-09-27T00:55:09;6.95;;;1.30;;
66721;SDS011;53633;49.932;10.884;2022-09-27T00:57:39;5.75;;;1.55;;
66721;SDS011;53633;49.932;10.884;2022-09-27T01:00:08;5.38;;;1.40;;
66721;SDS011;53633;49.932;10.884;2022-09-27T01:02:38;6.40;;;1.48;;
66721;SDS011;53633;49.932;10.884;2022-09-27T01:05:08;5.23;;;1.43;;
66721;SDS011;53633;49.932;10.884;2022-09-27T01:07:37;4.57;;;1.15;;
66721;SDS011;53633;49.932;10.884;2022-09-27T01:10:04;6.93;;;1.90;;
66721;SDS011;53633;49.932;10.884;2022-09-27T01:12:34;6.32;;;1.45;;
66721;SDS011;53633;49.932;10.884;2022-09-27T01:15:16;5.82;;;1.92;;
66721;SDS011;53633;49.932;10.884;2022-09-27T01:17:55;5.83;;;1.70;;
66721;SDS011;53633;49.932;10.884;2022-09-27T01:23:33;5.50;;;2.03;;
66721;SDS011;53633;49.932;10.884;2022-09-27T01:26:23;5.72;;;1.85;;
66721;SDS011;53633;49.932;10.884;2022-09-27T01:29:03;6.15;;;2.20;;
66721;SDS011;53633;49.932;10.884;2022-09-27T01:31:37;5.00;;;1.93;;
66721;SDS011;53633;49.932;10.884;2022-09-27T01:34:09;6.03;;;2.00;;
66721;SDS011;53633;49.932;10.884;2022-09-27T01:36:45;4.93;;;1.67;;
66721;SDS011;53633;49.932;10.884;2022-09-27T01:39:23;5.57;;;1.40;;
66721;SDS011;53633;49.932;10.884;2022-09-27T01:41:59;5.55;;;1.20;;
66721;SDS011;53633;49.932;10.884;2022-09-27T01:44:30;4.67;;;1.00;;
66721;SDS011;53633;49.932;10.884;2022-09-27T01:47:04;5.53;;;0.93;;
66721;SDS011;53633;49.932;10.884;2022-09-27T01:49:35;5.38;;;1.30;;
66721;SDS011;53633;49.932;10.884;2022-09-27T01:52:07;6.85;;;1.77;;
66721;SDS011;53633;49.932;10.884;2022-09-27T01:54:37;5.93;;;1.65;;
66721;SDS011;53633;49.932;10.884;2022-09-27T01:57:08;5.80;;;1.70;;
66721;SDS011;53633;49.932;10.884;2022-09-27T01:59:40;4.85;;;1.50;;
66721;SDS011;53633;49.932;10.884;2022-09-27T02:02:14;4.45;;;1.40;;
66721;SDS011;53633;49.932;10.884;2022-09-27T02:04:43;4.35;;;1.55;;
66721;SDS011;53633;49.932;10.884;2022-09-27T02:07:14;6.13;;;1.65;;
66721;SDS011;53633;49.932;10.884;2022-09-27T02:09:45;5.13;;;1.50;;
66721;SDS011;53633;49.932;10.884;2022-09-27T02:12:16;5.93;;;1.50;;
66721;SDS011;53633;49.932;10.884;2022-09-27T02:14:46;5.47;;;1.40;;
66721;SDS011;53633;49.932;10.884;2022-09-27T02:17:19;4.88;;;1.13;;
66721;SDS011;53633;49.932;10.884;2022-09-27T02:19:52;5.05;;;1.50;;
66721;SDS011;53633;49.932;10.884;2022-09-27T02:22:25;4.43;;;1.30;;
66721;SDS011;53633;49.932;10.884;2022-09-27T02:24:59;6.13;;;1.27;;
66721;SDS011;53633;49.932;10.884;2022-09-27T02:27:30;5.30;;;1.02;;
66721;SDS011;53633;49.932;10.884;2022-09-27T02:30:01;4.53;;;1.00;;
66721;SDS011;53633;49.932;10.884;2022-09-27T02:32:32;4.13;;;0.88;;
66721;SDS011;53633;49.932;10.884;2022-09-27T02:35:00;3.43;;;0.70;;
66721;SDS011;53633;49.932;10.884;2022-09-27T02:37:30;3.60;;;0.80;;
66721;SDS011;53633;49.932;10.884;2022-09-27T02:39:57;5.25;;;1.08;;
66721;SDS011;53633;49.932;10.884;2022-09-27T02:42:24;3.95;;;0.60;;
66721;SDS011;53633;49.932;10.884;2022-09-27T02:44:52;3.60;;;0.85;;
66721;SDS011;53633;49.932;10.884;2022-09-27T02:47:25;4.30;;;0.80;;
66721;SDS011;53633;49.932;10.884;2022-09-27T02:50:08;4.15;;;0.80;;
66721;SDS011;53633;49.932;10.884;2022-09-27T02:52:49;4.70;;;1.02;;
66721;SDS011;53633;49.932;10.884;2022-09-27T02:55:23;4.15;;;0.63;;
66721;SDS011;53633;49.932;10.884;2022-09-27T02:58:00;2.75;;;0.70;;
66721;SDS011;53633;49.932;10.884;2022-09-27T03:00:39;4.23;;;0.80;;
66721;SDS011;53633;49.932;10.884;2022-09-27T03:03:13;3.67;;;0.85;;
66721;SDS011;53633;49.932;10.884;2022-09-27T03:05:47;4.68;;;0.98;;
66721;SDS011;53633;49.932;10.884;2022-09-27T03:08:17;3.42;;;0.70;;
66721;SDS011;53633;49.932;10.884;2022-09-27T03:10:44;4.22;;;0.80;;
66721;SDS011;53633;49.932;10.884;2022-09-27T03:13:11;3.17;;;0.63;;
66721;SDS011;53633;49.932;10.884;2022-09-27T03:15:38;4.07;;;0.88;;
66721;SDS011;53633;49.932;10.884;2022-09-27T03:18:04;4.28;;;1.00;;
66721;SDS011;53633;49.932;10.884;2022-09-27T03:20:31;6.47;;;0.80;;
66721;SDS011;53633;49.932;10.884;2022-09-27T03:22:59;5.80;;;0.90;;
66721;SDS011;53633;49.932;10.884;2022-09-27T03:25:26;4.07;;;0.90;;
66721;SDS011;53633;49.932;10.884;2022-09-27T03:27:52;4.30;;;1.15;;
66721;SDS011;53633;49.932;10.884;2022-09-27T03:30:19;4.22;;;1.35;;
66721;SDS011;53633;49.932;10.884;2022-09-27T03:32:46;4.25;;;0.88;;
66721;SDS011;53633;49.932;10.884;2022-09-27T03:35:12;4.80;;;0.90;;
66721;SDS011;53633;49.932;10.884;2022-09-27T03:37:39;5.63;;;0.93;;
66721;SDS011;53633;49.932;10.884;2022-09-27T03:40:08;3.63;;;0.60;;
66721;SDS011;53633;49.932;10.884;2022-09-27T03:42:35;4.13;;;0.90;;
66721;SDS011;53633;49.932;10.884;2022-09-27T03:45:03;3.22;;;0.60;;
66721;SDS011;53633;49.932;10.884;2022-09-27T03:47:30;3.97;;;0.80;;
66721;SDS011;53633;49.932;10.884;2022-09-27T03:49:57;3.20;;;0.60;;
66721;SDS011;53633;49.932;10.884;2022-09-27T03:52:24;3.60;;;0.60;;
66721;SDS011;53633;49.932;10.884;2022-09-27T03:54:50;3.53;;;0.70;;
66721;SDS011;53633;49.932;10.884;2022-09-27T03:57:18;3.38;;;0.60;;
66721;SDS011;53633;49.932;10.884;2022-09-27T03:59:45;2.80;;;0.60;;
66721;SDS011;53633;49.932;10.884;2022-09-27T04:02:12;3.87;;;0.83;;
66721;SDS011;53633;49.932;10.884;2022-09-27T04:04:38;3.78;;;0.75;;
66721;SDS011;53633;49.932;10.884;2022-09-27T04:07:05;4.18;;;0.85;;
66721;SDS011;53633;49.932;10.884;2022-09-27T04:09:31;5.15;;;0.70;;
66721;SDS011;53633;49.932;10.884;2022-09-27T04:11:58;3.95;;;0.80;;
66721;SDS011;53633;49.932;10.884;2022-09-27T04:14:26;3.50;;;0.77;;
66721;SDS011;53633;49.932;10.884;2022-09-27T04:16:53;3.28;;;0.75;;
66721;SDS011;53633;49.932;10.884;2022-09-27T04:19:20;2.67;;;0.60;;
66721;SDS011;53633;49.932;10.884;2022-09-27T04:21:46;3.28;;;0.75;;
66721;SDS011;53633;49.932;10.884;2022-09-27T04:24:13;3.72;;;0.80;;
66721;SDS011;53633;49.932;10.884;2022-09-27T04:26:40;1.50;;;0.40;;
66721;SDS011;53633;49.932;10.884;2022-09-27T04:29:06;2.88;;;0.60;;
66721;SDS011;53633;49.932;10.884;2022-09-27T04:31:34;4.45;;;0.50;;
66721;SDS011;53633;49.932;10.884;2022-09-27T04:34:01;4.55;;;0.40;;
66721;SDS011;53633;49.932;10.884;2022-09-27T04:36:28;4.22;;;0.30;;
66721;SDS011;53633;49.932;10.884;2022-09-27T04:38:55;2.27;;;0.50;;
66721;SDS011;53633;49.932;10.884;2022-09-27T04:41:23;5.30;;;0.85;;
66721;SDS011;53633;49.932;10.884;2022-09-27T04:43:50;6.53;;;1.75;;
66721;SDS011;53633;49.932;10.884;2022-09-27T04:46:24;4.25;;;1.00;;
66721;SDS011;53633;49.932;10.884;2022-09-27T04:48:52;2.97;;;0.50;;
66721;SDS011;53633;49.932;10.884;2022-09-27T04:51:18;2.77;;;0.87;;
66721;SDS011;53633;49.932;10.884;2022-09-27T04:53:45;4.13;;;0.57;;
66721;SDS011;53633;49.932;10.884;2022-09-27T04:56:12;4.07;;;0.60;;
66721;SDS011;53633;49.932;10.884;2022-09-27T04:58:39;3.85;;;0.57;;
66721;SDS011;53633;49.932;10.884;2022-09-27T05:01:06;2.85;;;0.40;;
66721;SDS011;53633;49.932;10.884;2022-09-27T05:03:33;2.50;;;0.50;;
66721;SDS011;53633;49.932;10.884;2022-09-27T05:06:02;2.92;;;0.65;;
66721;SDS011;53633;49.932;10.884;2022-09-27T05:08:29;3.50;;;0.60;;
66721;SDS011;53633;49.932;10.884;2022-09-27T05:10:55;6.00;;;0.80;;
66721;SDS011;53633;49.932;10.884;2022-09-27T05:13:22;3.10;;;0.57;;
66721;SDS011;53633;49.932;10.884;2022-09-27T05:15:48;3.40;;;0.67;;
66721;SDS011;53633;49.932;10.884;2022-09-27T05:18:15;3.97;;;0.60;;
66721;SDS011;53633;49.932;10.884;2022-09-27T05:20:42;4.07;;;0.70;;
66721;SDS011;53633;49.932;10.884;2022-09-27T05:23:10;6.10;;;0.75;;
66721;SDS011;53633;49.932;10.884;2022-09-27T05:25:36;3.15;;;0.60;;
66721;SDS011;53633;49.932;10.884;2022-09-27T05:28:03;4.37;;;0.60;;
66721;SDS011;53633;49.932;10.884;2022-09-27T05:30:30;3.40;;;0.60;;
66721;SDS011;53633;49.932;10.884;2022-09-27T05:32:57;4.40;;;0.77;;
66721;SDS011;53633;49.932;10.884;2022-09-27T05:35:23;4.45;;;0.70;;
66721;SDS011;53633;49.932;10.884;2022-09-27T05:37:50;3.15;;;0.70;;
66721;SDS011;53633;49.932;10.884;2022-09-27T05:40:19;5.33;;;0.80;;
66721;SDS011;53633;49.932;10.884;2022-09-27T05:43:06;6.50;;;1.73;;
66721;SDS011;53633;49.932;10.884;2022-09-27T05:45:32;5.22;;;0.63;;
66721;SDS011;53633;49.932;10.884;2022-09-27T05:47:59;7.82;;;0.90;;
66721;SDS011;53633;49.932;10.884;2022-09-27T05:50:26;2.80;;;0.70;;
66721;SDS011;53633;49.932;10.884;2022-09-27T05:52:53;3.50;;;0.80;;
66721;SDS011;53633;49.932;10.884;2022-09-27T05:55:21;3.00;;;0.68;;
66721;SDS011;53633;49.932;10.884;2022-09-27T05:57:54;5.15;;;1.02;;
66721;SDS011;53633;49.932;10.884;2022-09-27T06:00:23;5.75;;;0.70;;
66721;SDS011;53633;49.932;10.884;2022-09-27T06:02:53;4.53;;;0.73;;
66721;SDS011;53633;49.932;10.884;2022-09-27T06:05:21;4.60;;;0.87;;
66721;SDS011;53633;49.932;10.884;2022-09-27T06:07:48;3.28;;;0.65;;
66721;SDS011;53633;49.932;10.884;2022-09-27T06:10:15;5.82;;;0.70;;
66721;SDS011;53633;49.932;10.884;2022-09-27T06:12:44;6.78;;;1.35;;
66721;SDS011;53633;49.932;10.884;2022-09-27T06:15:11;5.38;;;1.52;;
66721;SDS011;53633;49.932;10.884;2022-09-27T06:17:37;4.93;;;0.80;;
66721;SDS011;53633;49.932;10.884;2022-09-27T06:20:04;6.15;;;0.80;;
66721;SDS011;53633;49.932;10.884;2022-09-27T06:22:31;4.65;;;0.80;;
66721;SDS011;53633;49.932;10.884;2022-09-27T06:24:58;3.95;;;0.90;;
66721;SDS011;53633;49.932;10.884;2022-09-27T06:27:25;5.97;;;1.77;;
66721;SDS011;53633;49.932;10.884;2022-09-27T06:29:53;4.73;;;0.83;;
66721;SDS011;53633;49.932;10.884;2022-09-27T06:32:19;4.38;;;0.88;;
66721;SDS011;53633;49.932;10.884;2022-09-27T06:34:49;4.32;;;0.70;;
66721;SDS011;53633;49.932;10.884;2022-09-27T06:37:16;2.75;;;0.60;;
66721;SDS011;53633;49.932;10.884;2022-09-27T06:39:42;3.22;;;0.68;;
66721;SDS011;53633;49.932;10.884;2022-09-27T06:42:09;2.20;;;0.40;;
66721;SDS011;53633;49.932;10.884;2022-09-27T06:44:35;3.67;;;0.80;;
66721;SDS011;53633;49.932;10.884;2022-09-27T06:47:03;2.10;;;0.60;;
66721;SDS011;53633;49.932;10.884;2022-09-27T06:49:30;3.80;;;0.45;;
66721;SDS011;53633;49.932;10.884;2022-09-27T06:51:57;3.33;;;0.50;;
66721;SDS011;53633;49.932;10.884;2022-09-27T06:54:23;2.70;;;0.40;;
66721;SDS011;53633;49.932;10.884;2022-09-27T06:56:50;2.78;;;0.40;;
66721;SDS011;53633;49.932;10.884;2022-09-27T06:59:19;1.42;;;0.50;;
66721;SDS011;53633;49.932;10.884;2022-09-27T07:01:47;1.88;;;0.30;;
66721;SDS011;53633;49.932;10.884;2022-09-27T07:04:15;2.05;;;0.40;;
66721;SDS011;53633;49.932;10.884;2022-09-27T07:06:42;4.50;;;0.93;;
66721;SDS011;53633;49.932;10.884;2022-09-27T07:09:08;3.63;;;0.50;;
66721;SDS011;53633;49.932;10.884;2022-09-27T07:11:35;3.95;;;0.52;;
66721;SDS011;53633;49.932;10.884;2022-09-27T07:14:02;2.50;;;0.40;;
66721;SDS011;53633;49.932;10.884;2022-09-27T07:16:29;2.33;;;0.45;;
66721;SDS011;53633;49.932;10.884;2022-09-27T07:18:55;2.53;;;0.40;;
66721;SDS011;53633;49.932;10.884;2022-09-27T07:21:23;1.95;;;0.30;;
66721;SDS011;53633;49.932;10.884;2022-09-27T07:23:50;1.60;;;0.30;;
66721;SDS011;53633;49.932;10.884;2022-09-27T07:26:17;3.42;;;0.50;;
66721;SDS011;53633;49.932;10.884;2022-09-27T07:28:43;1.92;;;0.30;;
66721;SDS011;53633;49.932;10.884;2022-09-27T07:31:10;2.67;;;0.47;;
66721;SDS011;53633;49.932;10.884;2022-09-27T07:33:38;2.88;;;0.45;;
66721;SDS011;53633;49.932;10.884;2022-09-27T07:36:09;4.25;;;0.52;;
66721;SDS011;53633;49.932;10.884;2022-09-27T07:38:38;4.72;;;0.50;;
66721;SDS011;53633;49.932;10.884;2022-09-27T07:41:05;2.53;;;0.40;;
66721;SDS011;53633;49.932;10.884;2022-09-27T07:43:32;2.97;;;0.40;;
66721;SDS011;53633;49.932;10.884;2022-09-27T07:45:59;1.88;;;0.40;;
66721;SDS011;53633;49.932;10.884;2022-09-27T07:48:26;3.25;;;0.50;;
66721;SDS011;53633;49.932;10.884;2022-09-27T07:50:53;4.95;;;1.02;;
66721;SDS011;53633;49.932;10.884;2022-09-27T07:53:20;5.78;;;0.90;;
66721;SDS011;53633;49.932;10.884;2022-09-27T07:55:50;4.20;;;0.90;;
66721;SDS011;53633;49.932;10.884;2022-09-27T07:58:17;7.22;;;1.20;;
66721;SDS011;53633;49.932;10.884;2022-09-27T08:00:44;4.80;;;0.75;;
66721;SDS011;53633;49.932;10.884;2022-09-27T08:03:12;3.38;;;0.68;;
66721;SDS011;53633;49.932;10.884;2022-09-27T08:05:40;3.20;;;0.70;;
66721;SDS011;53633;49.932;10.884;2022-09-27T08:08:07;5.47;;;0.63;;
66721;SDS011;53633;49.932;10.884;2022-09-27T08:10:34;3.08;;;0.52;;
66721;SDS011;53633;49.932;10.884;2022-09-27T08:13:02;3.70;;;0.70;;
66721;SDS011;53633;49.932;10.884;2022-09-27T08:15:30;5.40;;;1.02;;
66721;SDS011;53633;49.932;10.884;2022-09-27T08:17:57;3.33;;;0.60;;
66721;SDS011;53633;49.932;10.884;2022-09-27T08:20:23;4.13;;;0.70;;
66721;SDS011;53633;49.932;10.884;2022-09-27T08:22:50;3.53;;;0.50;;
66721;SDS011;53633;49.932;10.884;2022-09-27T08:25:17;3.10;;;0.50;;
66721;SDS011;53633;49.932;10.884;2022-09-27T08:27:44;3.58;;;0.70;;
66721;SDS011;53633;49.932;10.884;2022-09-27T08:30:21;3.58;;;0.80;;
66721;SDS011;53633;49.932;10.884;2022-09-27T08:32:48;6.57;;;1.00;;
66721;SDS011;53633;49.932;10.884;2022-09-27T08:35:15;4.68;;;0.80;;
66721;SDS011;53633;49.932;10.884;2022-09-27T08:37:41;3.72;;;0.65;;
66721;SDS011;53633;49.932;10.884;2022-09-27T08:40:09;4.63;;;0.70;;
66721;SDS011;53633;49.932;10.884;2022-09-27T08:42:41;5.78;;;0.80;;
66721;SDS011;53633;49.932;10.884;2022-09-27T08:45:15;3.90;;;0.60;;
66721;SDS011;53633;49.932;10.884;2022-09-27T08:47:47;3.85;;;0.50;;
66721;SDS011;53633;49.932;10.884;2022-09-27T08:50:21;2.03;;;0.50;;
66721;SDS011;53633;49.932;10.884;2022-09-27T08:52:50;4.03;;;0.50;;
66721;SDS011;53633;49.932;10.884;2022-09-27T08:55:25;2.80;;;0.50;;
66721;SDS011;53633;49.932;10.884;2022-09-27T08:57:58;4.13;;;0.67;;
66721;SDS011;53633;49.932;10.884;2022-09-27T09:00:27;3.60;;;0.75;;
66721;SDS011;53633;49.932;10.884;2022-09-27T09:02:58;3.63;;;0.73;;
66721;SDS011;53633;49.932;10.884;2022-09-27T09:05:28;3.25;;;0.40;;
66721;SDS011;53633;49.932;10.884;2022-09-27T09:08:00;2.83;;;0.50;;
66721;SDS011;53633;49.932;10.884;2022-09-27T09:10:41;2.90;;;0.60;;
66721;SDS011;53633;49.932;10.884;2022-09-27T09:13:16;2.72;;;0.57;;
66721;SDS011;53633;49.932;10.884;2022-09-27T09:15:52;3.60;;;0.55;;
66721;SDS011;53633;49.932;10.884;2022-09-27T09:18:40;1.95;;;0.30;;
66721;SDS011;53633;49.932;10.884;2022-09-27T09:21:21;3.22;;;0.65;;
66721;SDS011;53633;49.932;10.884;2022-09-27T09:24:00;2.00;;;0.40;;
66721;SDS011;53633;49.932;10.884;2022-09-27T09:26:46;5.95;;;0.60;;
66721;SDS011;53633;49.932;10.884;2022-09-27T09:29:27;4.63;;;0.82;;
66721;SDS011;53633;49.932;10.884;2022-09-27T09:32:05;2.50;;;0.60;;
66721;SDS011;53633;49.932;10.884;2022-09-27T09:34:42;3.80;;;1.00;;
66721;SDS011;53633;49.932;10.884;2022-09-27T09:37:14;3.70;;;1.10;;
66721;SDS011;53633;49.932;10.884;2022-09-27T09:39:46;5.10;;;1.48;;
66721;SDS011;53633;49.932;10.884;2022-09-27T09:42:17;3.80;;;1.00;;
66721;SDS011;53633;49.932;10.884;2022-09-27T09:44:50;4.40;;;1.15;;
66721;SDS011;53633;49.932;10.884;2022-09-27T09:47:25;6.38;;;1.80;;
66721;SDS011;53633;49.932;10.884;2022-09-27T09:49:59;5.13;;;2.30;;
66721;SDS011;53633;49.932;10.884;2022-09-27T09:52:31;4.20;;;1.27;;
66721;SDS011;53633;49.932;10.884;2022-09-27T09:55:05;2.85;;;0.73;;
66721;SDS011;53633;49.932;10.884;2022-09-27T09:57:41;3.50;;;1.25;;
66721;SDS011;53633;49.932;10.884;2022-09-27T10:00:15;3.92;;;0.60;;
66721;SDS011;53633;49.932;10.884;2022-09-27T10:02:43;3.80;;;0.50;;
66721;SDS011;53633;49.932;10.884;2022-09-27T10:05:15;3.33;;;0.80;;
66721;SDS011;53633;49.932;10.884;2022-09-27T10:07:44;3.80;;;0.70;;
66721;SDS011;53633;49.932;10.884;2022-09-27T10:10:12;3.13;;;0.80;;
66721;SDS011;53633;49.932;10.884;2022-09-27T10:12:40;3.58;;;0.80;;
66721;SDS011;53633;49.932;10.884;2022-09-27T10:15:11;4.83;;;1.13;;
66721;SDS011;53633;49.932;10.884;2022-09-27T10:17:41;3.78;;;0.70;;
66721;SDS011;53633;49.932;10.884;2022-09-27T10:20:21;4.75;;;1.23;;
66721;SDS011;53633;49.932;10.884;2022-09-27T10:22:52;4.65;;;1.20;;
66721;SDS011;53633;49.932;10.884;2022-09-27T10:25:21;5.18;;;1.10;;
66721;SDS011;53633;49.932;10.884;2022-09-27T10:27:49;5.17;;;1.27;;
66721;SDS011;53633;49.932;10.884;2022-09-27T10:30:26;4.53;;;1.00;;
66721;SDS011;53633;49.932;10.884;2022-09-27T10:32:55;4.97;;;1.60;;
66721;SDS011;53633;49.932;10.884;2022-09-27T10:35:34;5.55;;;1.80;;
66721;SDS011;53633;49.932;10.884;2022-09-27T10:40:55;3.33;;;0.80;;
66721;SDS011;53633;49.932;10.884;2022-09-27T10:43:23;3.67;;;1.00;;
66721;SDS011;53633;49.932;10.884;2022-09-27T10:45:59;3.00;;;0.80;;
66721;SDS011;53633;49.932;10.884;2022-09-27T10:48:30;4.40;;;1.05;;
66721;SDS011;53633;49.932;10.884;2022-09-27T10:50:59;2.90;;;0.70;;
66721;SDS011;53633;49.932;10.884;2022-09-27T10:53:27;3.60;;;0.90;;
66721;SDS011;53633;49.932;10.884;2022-09-27T10:55:55;3.22;;;1.10;;
66721;SDS011;53633;49.932;10.884;2022-09-27T10:58:24;3.70;;;1.10;;
66721;SDS011;53633;49.932;10.884;2022-09-27T11:00:57;3.05;;;0.80;;
66721;SDS011;53633;49.932;10.884;2022-09-27T11:03:25;3.65;;;0.70;;
66721;SDS011;53633;49.932;10.884;2022-09-27T11:05:53;2.70;;;0.50;;
66721;SDS011;53633;49.932;10.884;2022-09-27T11:08:23;3.08;;;0.60;;
66721;SDS011;53633;49.932;10.884;2022-09-27T11:11:01;3.17;;;0.65;;
66721;SDS011;53633;49.932;10.884;2022-09-27T11:13:31;4.38;;;0.77;;
66721;SDS011;53633;49.932;10.884;2022-09-27T11:16:02;2.33;;;0.60;;
66721;SDS011;53633;49.932;10.884;2022-09-27T11:18:38;3.23;;;0.60;;
66721;SDS011;53633;49.932;10.884;2022-09-27T11:21:15;2.83;;;0.57;;
66721;SDS011;53633;49.932;10.884;2022-09-27T11:23:59;3.90;;;0.90;;
66721;SDS011;53633;49.932;10.884;2022-09-27T11:26:38;3.05;;;0.60;;
66721;SDS011;53633;49.932;10.884;2022-09-27T11:29:19;4.65;;;1.10;;
66721;SDS011;53633;49.932;10.884;2022-09-27T11:31:53;2.53;;;0.60;;
66721;SDS011;53633;49.932;10.884;2022-09-27T11:34:46;3.05;;;0.75;;
66721;SDS011;53633;49.932;10.884;2022-09-27T11:37:26;2.63;;;0.65;;
66721;SDS011;53633;49.932;10.884;2022-09-27T11:40:06;2.00;;;0.60;;
66721;SDS011;53633;49.932;10.884;2022-09-27T11:42:45;4.15;;;0.95;;
66721;SDS011;53633;49.932;10.884;2022-09-27T11:45:25;7.63;;;1.17;;
66721;SDS011;53633;49.932;10.884;2022-09-27T11:48:22;3.17;;;0.65;;
66721;SDS011;53633;49.932;10.884;2022-09-27T11:51:07;1.92;;;0.50;;
66721;SDS011;53633;49.932;10.884;2022-09-27T11:53:51;7.07;;;1.10;;
66721;SDS011;53633;49.932;10.884;2022-09-27T11:56:35;4.97;;;0.95;;
66721;SDS011;53633;49.932;10.884;2022-09-27T11:59:16;4.13;;;0.63;;
66721;SDS011;53633;49.932;10.884;2022-09-27T12:02:06;2.95;;;0.70;;
66721;SDS011;53633;49.932;10.884;2022-09-27T12:04:59;2.42;;;0.60;;
66721;SDS011;53633;49.932;10.884;2022-09-27T12:07:39;2.08;;;0.45;;
66721;SDS011;53633;49.932;10.884;2022-09-27T12:10:19;5.97;;;0.70;;
66721;SDS011;53633;49.932;10.884;2022-09-27T12:12:48;2.87;;;0.60;;
66721;SDS011;53633;49.932;10.884;2022-09-27T12:15:18;3.03;;;0.70;;
66721;SDS011;53633;49.932;10.884;2022-09-27T12:17:47;3.15;;;0.65;;
66721;SDS011;53633;49.932;10.884;2022-09-27T12:20:18;5.85;;;0.75;;
66721;SDS011;53633;49.932;10.884;2022-09-27T12:22:54;5.47;;;0.90;;
66721;SDS011;53633;49.932;10.884;2022-09-27T12:25:27;4.50;;;1.10;;
66721;SDS011;53633;49.932;10.884;2022-09-27T12:27:57;4.30;;;0.60;;
66721;SDS011;53633;49.932;10.884;2022-09-27T12:30:30;5.10;;;0.82;;
66721;SDS011;53633;49.932;10.884;2022-09-27T12:33:00;5.10;;;0.60;;
66721;SDS011;53633;49.932;10.884;2022-09-27T12:35:33;4.10;;;0.60;;
66721;SDS011;53633;49.932;10.884;2022-09-27T12:38:08;4.13;;;1.00;;
66721;SDS011;53633;49.932;10.884;2022-09-27T12:40:38;3.50;;;0.80;;
66721;SDS011;53633;49.932;10.884;2022-09-27T12:43:10;4.50;;;0.90;;
66721;SDS011;53633;49.932;10.884;2022-09-27T12:45:43;3.90;;;0.80;;
66721;SDS011;53633;49.932;10.884;2022-09-27T12:48:17;3.38;;;0.55;;
66721;SDS011;53633;49.932;10.884;2022-09-27T12:50:53;3.50;;;0.73;;
66721;SDS011;53633;49.932;10.884;2022-09-27T12:53:24;3.83;;;0.70;;
66721;SDS011;53633;49.932;10.884;2022-09-27T12:56:02;4.03;;;0.52;;
66721;SDS011;53633;49.932;10.884;2022-09-27T13:01:47;2.30;;;0.60;;
66721;SDS011;53633;49.932;10.884;2022-09-27T13:04:25;3.63;;;0.60;;
66721;SDS011;53633;49.932;10.884;2022-09-27T13:07:11;5.63;;;1.20;;
66721;SDS011;53633;49.932;10.884;2022-09-27T13:09:50;4.50;;;0.88;;
66721;SDS011;53633;49.932;10.884;2022-09-27T13:12:29;2.05;;;0.55;;
66721;SDS011;53633;49.932;10.884;2022-09-27T13:15:00;3.30;;;0.57;;
66721;SDS011;53633;49.932;10.884;2022-09-27T13:17:48;3.67;;;0.50;;
66721;SDS011;53633;49.932;10.884;2022-09-27T13:20:39;2.28;;;0.43;;
66721;SDS011;53633;49.932;10.884;2022-09-27T13:29:23;3.40;;;0.50;;
66721;SDS011;53633;49.932;10.884;2022-09-27T13:32:02;2.47;;;0.40;;
66721;SDS011;53633;49.932;10.884;2022-09-27T13:34:50;2.35;;;0.40;;
66721;SDS011;53633;49.932;10.884;2022-09-27T13:37:33;3.03;;;0.47;;
66721;SDS011;53633;49.932;10.884;2022-09-27T13:43:04;4.32;;;1.00;;
66721;SDS011;53633;49.932;10.884;2022-09-27T13:45:48;5.23;;;0.70;;
66721;SDS011;53633;49.932;10.884;2022-09-27T13:48:19;6.25;;;0.82;;
66721;SDS011;53633;49.932;10.884;2022-09-27T13:50:52;8.15;;;0.60;;
66721;SDS011;53633;49.932;10.884;2022-09-27T13:53:29;8.05;;;0.75;;
66721;SDS011;53633;49.932;10.884;2022-09-27T13:55:58;4.60;;;0.45;;
66721;SDS011;53633;49.932;10.884;2022-09-27T13:58:36;4.87;;;0.70;;
66721;SDS011;53633;49.932;10.884;2022-09-27T14:01:17;3.53;;;0.90;;
66721;SDS011;53633;49.932;10.884;2022-09-27T14:03:59;3.42;;;0.60;;
66721;SDS011;53633;49.932;10.884;2022-09-27T14:06:30;4.40;;;0.80;;
66721;SDS011;53633;49.932;10.884;2022-09-27T14:12:31;2.67;;;0.70;;
66721;SDS011;53633;49.932;10.884;2022-09-27T14:15:02;4.13;;;0.90;;
66721;SDS011;53633;49.932;10.884;2022-09-27T14:17:30;4.45;;;0.82;;
66721;SDS011;53633;49.932;10.884;2022-09-27T14:19:58;4.35;;;0.75;;
66721;SDS011;53633;49.932;10.884;2022-09-27T14:22:25;3.60;;;0.80;;
66721;SDS011;53633;49.932;10.884;2022-09-27T14:24:52;4.40;;;1.00;;
66721;SDS011;53633;49.932;10.884;2022-09-27T14:27:20;3.58;;;1.02;;
66721;SDS011;53633;49.932;10.884;2022-09-27T14:29:48;4.50;;;1.40;;
66721;SDS011;53633;49.932;10.884;2022-09-27T14:32:16;4.03;;;0.90;;
66721;SDS011;53633;49.932;10.884;2022-09-27T14:34:44;3.95;;;1.10;;
66721;SDS011;53633;49.932;10.884;2022-09-27T14:37:16;3.70;;;0.90;;
66721;SDS011;53633;49.932;10.884;2022-09-27T14:39:51;4.05;;;0.90;;
66721;SDS011;53633;49.932;10.884;2022-09-27T14:42:20;4.32;;;1.30;;
66721;SDS011;53633;49.932;10.884;2022-09-27T14:44:48;5.35;;;1.27;;
66721;SDS011;53633;49.932;10.884;2022-09-27T14:47:16;7.50;;;2.10;;
66721;SDS011;53633;49.932;10.884;2022-09-27T14:49:45;7.17;;;1.57;;
66721;SDS011;53633;49.932;10.884;2022-09-27T14:52:16;4.57;;;1.33;;
66721;SDS011;53633;49.932;10.884;2022-09-27T14:54:53;4.88;;;1.25;;
66721;SDS011;53633;49.932;10.884;2022-09-27T14:57:28;3.33;;;0.80;;
66721;SDS011;53633;49.932;10.884;2022-09-27T14:59:56;4.30;;;1.20;;
66721;SDS011;53633;49.932;10.884;2022-09-27T15:02:24;3.63;;;1.10;;
66721;SDS011;53633;49.932;10.884;2022-09-27T15:04:51;5.30;;;1.48;;
66721;SDS011;53633;49.932;10.884;2022-09-27T15:07:21;3.63;;;0.80;;
66721;SDS011;53633;49.932;10.884;2022-09-27T15:09:48;3.05;;;1.00;;
66721;SDS011;53633;49.932;10.884;2022-09-27T15:12:17;3.58;;;1.05;;
66721;SDS011;53633;49.932;10.884;2022-09-27T15:14:50;3.93;;;1.20;;
66721;SDS011;53633;49.932;10.884;2022-09-27T15:17:19;5.07;;;1.38;;
66721;SDS011;53633;49.932;10.884;2022-09-27T15:19:56;4.25;;;1.20;;